sensor_id;sensor_type;location;lat;lon;timestamp;P1;durP1;ratioP1;P2;durP2;ratioP2
69005;SDS011;56061;51.748;19.620;2023-04-01T00:01:22;15.30;;;9.10;;
69005;SDS011;56061;51.748;19.620;2023-04-01T00:03:49;15.60;;;8.20;;
69005;SDS011;56061;51.748;19.620;2023-04-01T00:06:17;15.80;;;8.50;;
69005;SDS011;56061;51.748;19.620;2023-04-01T00:08:45;15.20;;;7.80;;
69005;SDS011;56061;51.748;19.620;2023-04-01T00:11:13;15.70;;;7.80;;
69005;SDS011;56061;51.748;19.620;2023-04-01T00:13:41;13.60;;;8.20;;
69005;SDS011;56061;51.748;19.620;2023-04-01T00:16:08;14.80;;;8.30;;
69005;SDS011;56061;51.748;19.620;2023-04-01T00:18:48;17.20;;;9.20;;
69005;SDS011;56061;51.748;19.620;2023-04-01T00:21:16;16.10;;;8.80;;
69005;SDS011;56061;51.748;19.620;2023-04-01T00:23:43;16.60;;;9.30;;
69005;SDS011;56061;51.748;19.620;2023-04-01T00:26:10;17.20;;;9.40;;
69005;SDS011;56061;51.748;19.620;2023-04-01T00:28:38;15.40;;;9.30;;
69005;SDS011;56061;51.748;19.620;2023-04-01T00:31:07;15.60;;;9.20;;
69005;SDS011;56061;51.748;19.620;2023-04-01T00:33:34;17.40;;;10.00;;
69005;SDS011;56061;51.748;19.620;2023-04-01T00:36:16;18.30;;;10.90;;
69005;SDS011;56061;51.748;19.620;2023-04-01T00:38:44;18.90;;;10.50;;
69005;SDS011;56061;51.748;19.620;2023-04-01T00:41:18;17.70;;;10.50;;
69005;SDS011;56061;51.748;19.620;2023-04-01T00:43:49;19.30;;;11.60;;
69005;SDS011;56061;51.748;19.620;2023-04-01T00:46:17;19.30;;;10.70;;
69005;SDS011;56061;51.748;19.620;2023-04-01T00:48:51;19.70;;;11.30;;
69005;SDS011;56061;51.748;19.620;2023-04-01T00:51:22;22.70;;;12.90;;
69005;SDS011;56061;51.748;19.620;2023-04-01T00:53:53;21.40;;;12.50;;
69005;SDS011;56061;51.748;19.620;2023-04-01T00:56:24;20.20;;;11.80;;
69005;SDS011;56061;51.748;19.620;2023-04-01T00:59:04;18.20;;;10.70;;
69005;SDS011;56061;51.748;19.620;2023-04-01T01:01:35;20.10;;;11.50;;
69005;SDS011;56061;51.748;19.620;2023-04-01T01:04:02;19.90;;;11.40;;
69005;SDS011;56061;51.748;19.620;2023-04-01T01:09:21;20.00;;;11.00;;
69005;SDS011;56061;51.748;19.620;2023-04-01T01:12:14;20.60;;;11.60;;
69005;SDS011;56061;51.748;19.620;2023-04-01T01:14:55;20.70;;;11.30;;
69005;SDS011;56061;51.748;19.620;2023-04-01T01:17:58;19.30;;;12.00;;
69005;SDS011;56061;51.748;19.620;2023-04-01T01:20:35;19.50;;;11.10;;
69005;SDS011;56061;51.748;19.620;2023-04-01T01:27:14;17.40;;;11.00;;
69005;SDS011;56061;51.748;19.620;2023-04-01T01:30:08;19.90;;;11.60;;
69005;SDS011;56061;51.748;19.620;2023-04-01T01:33:06;16.60;;;10.40;;
69005;SDS011;56061;51.748;19.620;2023-04-01T01:35:54;18.90;;;11.00;;
69005;SDS011;56061;51.748;19.620;2023-04-01T01:38:26;17.70;;;10.80;;
69005;SDS011;56061;51.748;19.620;2023-04-01T01:40:55;17.80;;;11.20;;
69005;SDS011;56061;51.748;19.620;2023-04-01T01:43:27;16.60;;;10.60;;
69005;SDS011;56061;51.748;19.620;2023-04-01T01:46:00;18.90;;;10.70;;
69005;SDS011;56061;51.748;19.620;2023-04-01T01:48:33;18.90;;;11.80;;
69005;SDS011;56061;51.748;19.620;2023-04-01T01:51:03;16.60;;;10.90;;
69005;SDS011;56061;51.748;19.620;2023-04-01T01:53:32;15.40;;;10.00;;
69005;SDS011;56061;51.748;19.620;2023-04-01T01:55:58;17.00;;;10.20;;
69005;SDS011;56061;51.748;19.620;2023-04-01T01:58:30;18.40;;;10.20;;
69005;SDS011;56061;51.748;19.620;2023-04-01T02:01:11;17.30;;;10.20;;
69005;SDS011;56061;51.748;19.620;2023-04-01T02:03:42;17.60;;;10.20;;
69005;SDS011;56061;51.748;19.620;2023-04-01T02:06:14;17.70;;;11.20;;
69005;SDS011;56061;51.748;19.620;2023-04-01T02:08:58;17.70;;;11.10;;
69005;SDS011;56061;51.748;19.620;2023-04-01T02:11:39;19.60;;;11.80;;
69005;SDS011;56061;51.748;19.620;2023-04-01T02:14:13;20.00;;;11.60;;
69005;SDS011;56061;51.748;19.620;2023-04-01T02:16:51;20.30;;;11.80;;
69005;SDS011;56061;51.748;19.620;2023-04-01T02:19:25;20.50;;;11.70;;
69005;SDS011;56061;51.748;19.620;2023-04-01T02:22:01;21.40;;;12.70;;
69005;SDS011;56061;51.748;19.620;2023-04-01T02:24:31;20.40;;;13.00;;
69005;SDS011;56061;51.748;19.620;2023-04-01T02:27:01;22.60;;;12.80;;
69005;SDS011;56061;51.748;19.620;2023-04-01T02:29:29;22.20;;;12.70;;
69005;SDS011;56061;51.748;19.620;2023-04-01T02:31:56;22.50;;;12.70;;
69005;SDS011;56061;51.748;19.620;2023-04-01T02:34:24;26.20;;;13.80;;
69005;SDS011;56061;51.748;19.620;2023-04-01T02:36:52;26.10;;;13.60;;
69005;SDS011;56061;51.748;19.620;2023-04-01T02:39:20;27.20;;;14.40;;
69005;SDS011;56061;51.748;19.620;2023-04-01T02:41:47;25.20;;;14.10;;
69005;SDS011;56061;51.748;19.620;2023-04-01T02:44:15;24.00;;;13.40;;
69005;SDS011;56061;51.748;19.620;2023-04-01T02:46:42;23.30;;;13.20;;
69005;SDS011;56061;51.748;19.620;2023-04-01T02:49:08;22.40;;;13.10;;
69005;SDS011;56061;51.748;19.620;2023-04-01T02:51:35;23.80;;;13.60;;
69005;SDS011;56061;51.748;19.620;2023-04-01T02:54:01;21.40;;;12.70;;
69005;SDS011;56061;51.748;19.620;2023-04-01T02:56:28;22.70;;;12.30;;
69005;SDS011;56061;51.748;19.620;2023-04-01T02:58:55;22.50;;;12.60;;
69005;SDS011;56061;51.748;19.620;2023-04-01T03:01:22;25.20;;;13.50;;
69005;SDS011;56061;51.748;19.620;2023-04-01T03:03:49;25.20;;;13.60;;
69005;SDS011;56061;51.748;19.620;2023-04-01T03:06:16;22.50;;;12.60;;
69005;SDS011;56061;51.748;19.620;2023-04-01T03:08:44;23.40;;;12.10;;
69005;SDS011;56061;51.748;19.620;2023-04-01T03:11:11;21.70;;;12.50;;
69005;SDS011;56061;51.748;19.620;2023-04-01T03:13:38;22.70;;;12.50;;
69005;SDS011;56061;51.748;19.620;2023-04-01T03:16:04;35.70;;;18.30;;
69005;SDS011;56061;51.748;19.620;2023-04-01T03:18:31;25.90;;;13.40;;
69005;SDS011;56061;51.748;19.620;2023-04-01T03:21:12;20.90;;;11.30;;
69005;SDS011;56061;51.748;19.620;2023-04-01T03:23:40;21.20;;;11.50;;
69005;SDS011;56061;51.748;19.620;2023-04-01T03:26:07;20.10;;;11.50;;
69005;SDS011;56061;51.748;19.620;2023-04-01T03:28:34;20.80;;;12.20;;
69005;SDS011;56061;51.748;19.620;2023-04-01T03:31:00;20.00;;;11.90;;
69005;SDS011;56061;51.748;19.620;2023-04-01T03:33:27;23.30;;;11.90;;
69005;SDS011;56061;51.748;19.620;2023-04-01T03:35:53;19.70;;;11.80;;
69005;SDS011;56061;51.748;19.620;2023-04-01T03:38:20;22.20;;;12.10;;
69005;SDS011;56061;51.748;19.620;2023-04-01T03:40:46;21.20;;;12.00;;
69005;SDS011;56061;51.748;19.620;2023-04-01T03:43:13;18.00;;;10.80;;
69005;SDS011;56061;51.748;19.620;2023-04-01T03:45:50;21.40;;;11.90;;
69005;SDS011;56061;51.748;19.620;2023-04-01T03:48:17;20.50;;;10.80;;
69005;SDS011;56061;51.748;19.620;2023-04-01T03:50:44;20.00;;;11.20;;
69005;SDS011;56061;51.748;19.620;2023-04-01T03:53:11;20.50;;;12.30;;
69005;SDS011;56061;51.748;19.620;2023-04-01T03:55:38;21.00;;;11.10;;
69005;SDS011;56061;51.748;19.620;2023-04-01T03:58:06;16.40;;;10.10;;
69005;SDS011;56061;51.748;19.620;2023-04-01T04:00:33;19.10;;;11.30;;
69005;SDS011;56061;51.748;19.620;2023-04-01T04:02:59;19.80;;;10.60;;
69005;SDS011;56061;51.748;19.620;2023-04-01T04:05:27;16.90;;;10.00;;
69005;SDS011;56061;51.748;19.620;2023-04-01T04:07:54;17.20;;;9.60;;
69005;SDS011;56061;51.748;19.620;2023-04-01T04:10:21;15.20;;;9.20;;
69005;SDS011;56061;51.748;19.620;2023-04-01T04:12:49;14.50;;;8.70;;
69005;SDS011;56061;51.748;19.620;2023-04-01T04:15:16;19.70;;;9.90;;
69005;SDS011;56061;51.748;19.620;2023-04-01T04:17:44;14.60;;;8.50;;
69005;SDS011;56061;51.748;19.620;2023-04-01T04:20:11;16.80;;;8.90;;
69005;SDS011;56061;51.748;19.620;2023-04-01T04:22:38;18.20;;;9.00;;
69005;SDS011;56061;51.748;19.620;2023-04-01T04:25:05;15.20;;;8.80;;
69005;SDS011;56061;51.748;19.620;2023-04-01T04:27:33;14.30;;;8.30;;
69005;SDS011;56061;51.748;19.620;2023-04-01T04:30:00;15.50;;;8.30;;
69005;SDS011;56061;51.748;19.620;2023-04-01T04:32:26;16.30;;;8.40;;
69005;SDS011;56061;51.748;19.620;2023-04-01T04:34:55;14.00;;;8.00;;
69005;SDS011;56061;51.748;19.620;2023-04-01T04:37:21;12.40;;;8.00;;
69005;SDS011;56061;51.748;19.620;2023-04-01T04:39:48;17.00;;;8.00;;
69005;SDS011;56061;51.748;19.620;2023-04-01T04:42:14;13.90;;;8.30;;
69005;SDS011;56061;51.748;19.620;2023-04-01T04:44:40;17.00;;;8.30;;
69005;SDS011;56061;51.748;19.620;2023-04-01T04:47:07;13.90;;;7.90;;
69005;SDS011;56061;51.748;19.620;2023-04-01T04:49:33;13.20;;;7.90;;
69005;SDS011;56061;51.748;19.620;2023-04-01T04:52:00;14.00;;;7.90;;
69005;SDS011;56061;51.748;19.620;2023-04-01T04:54:26;13.30;;;7.30;;
69005;SDS011;56061;51.748;19.620;2023-04-01T04:56:53;14.00;;;8.10;;
69005;SDS011;56061;51.748;19.620;2023-04-01T04:59:20;13.40;;;8.10;;
69005;SDS011;56061;51.748;19.620;2023-04-01T05:01:47;14.80;;;7.80;;
69005;SDS011;56061;51.748;19.620;2023-04-01T05:04:13;14.30;;;8.10;;
69005;SDS011;56061;51.748;19.620;2023-04-01T05:06:39;12.60;;;7.80;;
69005;SDS011;56061;51.748;19.620;2023-04-01T05:09:06;14.30;;;8.30;;
69005;SDS011;56061;51.748;19.620;2023-04-01T05:11:32;11.80;;;7.60;;
69005;SDS011;56061;51.748;19.620;2023-04-01T05:13:59;13.90;;;7.70;;
69005;SDS011;56061;51.748;19.620;2023-04-01T05:16:25;13.20;;;7.50;;
69005;SDS011;56061;51.748;19.620;2023-04-01T05:18:52;17.80;;;10.60;;
69005;SDS011;56061;51.748;19.620;2023-04-01T05:21:18;16.30;;;10.50;;
69005;SDS011;56061;51.748;19.620;2023-04-01T05:23:45;13.30;;;6.90;;
69005;SDS011;56061;51.748;19.620;2023-04-01T05:26:13;16.30;;;9.30;;
69005;SDS011;56061;51.748;19.620;2023-04-01T05:28:41;18.60;;;9.90;;
69005;SDS011;56061;51.748;19.620;2023-04-01T05:31:08;17.50;;;9.20;;
69005;SDS011;56061;51.748;19.620;2023-04-01T05:33:35;18.40;;;11.30;;
69005;SDS011;56061;51.748;19.620;2023-04-01T05:36:15;17.10;;;10.60;;
69005;SDS011;56061;51.748;19.620;2023-04-01T05:38:43;18.40;;;10.60;;
69005;SDS011;56061;51.748;19.620;2023-04-01T05:41:12;18.80;;;10.20;;
69005;SDS011;56061;51.748;19.620;2023-04-01T05:43:40;16.40;;;9.90;;
69005;SDS011;56061;51.748;19.620;2023-04-01T05:46:08;15.90;;;8.70;;
69005;SDS011;56061;51.748;19.620;2023-04-01T05:48:34;13.20;;;8.10;;
69005;SDS011;56061;51.748;19.620;2023-04-01T05:51:02;15.30;;;7.70;;
69005;SDS011;56061;51.748;19.620;2023-04-01T05:53:29;19.50;;;9.10;;
69005;SDS011;56061;51.748;19.620;2023-04-01T05:55:56;28.90;;;19.60;;
69005;SDS011;56061;51.748;19.620;2023-04-01T05:58:22;18.60;;;13.10;;
69005;SDS011;56061;51.748;19.620;2023-04-01T06:00:49;16.30;;;11.90;;
69005;SDS011;56061;51.748;19.620;2023-04-01T06:03:33;17.20;;;13.50;;
69005;SDS011;56061;51.748;19.620;2023-04-01T06:06:00;15.90;;;10.40;;
69005;SDS011;56061;51.748;19.620;2023-04-01T06:08:30;16.30;;;10.70;;
69005;SDS011;56061;51.748;19.620;2023-04-01T06:16:49;13.90;;;8.50;;
69005;SDS011;56061;51.748;19.620;2023-04-01T06:19:51;13.50;;;8.90;;
69005;SDS011;56061;51.748;19.620;2023-04-01T06:22:50;14.20;;;8.60;;
69005;SDS011;56061;51.748;19.620;2023-04-01T06:25:25;19.90;;;13.20;;
69005;SDS011;56061;51.748;19.620;2023-04-01T06:31:25;14.90;;;9.00;;
69005;SDS011;56061;51.748;19.620;2023-04-01T06:43:30;17.50;;;10.20;;
69005;SDS011;56061;51.748;19.620;2023-04-01T06:49:20;14.00;;;8.20;;
69005;SDS011;56061;51.748;19.620;2023-04-01T06:52:11;14.50;;;7.50;;
69005;SDS011;56061;51.748;19.620;2023-04-01T06:55:02;15.50;;;8.20;;
69005;SDS011;56061;51.748;19.620;2023-04-01T06:57:45;15.40;;;8.10;;
69005;SDS011;56061;51.748;19.620;2023-04-01T07:00:27;13.00;;;7.60;;
69005;SDS011;56061;51.748;19.620;2023-04-01T07:03:22;15.60;;;8.40;;
69005;SDS011;56061;51.748;19.620;2023-04-01T07:05:59;15.10;;;9.00;;
69005;SDS011;56061;51.748;19.620;2023-04-01T07:08:31;13.90;;;8.10;;
69005;SDS011;56061;51.748;19.620;2023-04-01T07:11:08;13.70;;;8.50;;
69005;SDS011;56061;51.748;19.620;2023-04-01T07:19:18;14.90;;;8.20;;
69005;SDS011;56061;51.748;19.620;2023-04-01T07:22:01;17.40;;;12.30;;
69005;SDS011;56061;51.748;19.620;2023-04-01T07:24:37;16.00;;;11.10;;
69005;SDS011;56061;51.748;19.620;2023-04-01T07:27:11;15.70;;;9.20;;
69005;SDS011;56061;51.748;19.620;2023-04-01T07:29:40;17.10;;;8.90;;
69005;SDS011;56061;51.748;19.620;2023-04-01T07:41:10;12.50;;;7.80;;
69005;SDS011;56061;51.748;19.620;2023-04-01T07:43:49;12.70;;;7.60;;
69005;SDS011;56061;51.748;19.620;2023-04-01T07:49:59;16.90;;;9.90;;
69005;SDS011;56061;51.748;19.620;2023-04-01T07:52:45;12.70;;;7.80;;
69005;SDS011;56061;51.748;19.620;2023-04-01T08:01:02;15.20;;;8.10;;
69005;SDS011;56061;51.748;19.620;2023-04-01T08:06:47;14.20;;;7.10;;
69005;SDS011;56061;51.748;19.620;2023-04-01T08:10:21;16.50;;;9.30;;
69005;SDS011;56061;51.748;19.620;2023-04-01T08:15:56;16.00;;;8.30;;
69005;SDS011;56061;51.748;19.620;2023-04-01T08:18:43;13.70;;;7.40;;
69005;SDS011;56061;51.748;19.620;2023-04-01T08:21:38;15.00;;;9.80;;
69005;SDS011;56061;51.748;19.620;2023-04-01T08:24:29;11.90;;;7.60;;
69005;SDS011;56061;51.748;19.620;2023-04-01T08:27:21;15.70;;;9.20;;
69005;SDS011;56061;51.748;19.620;2023-04-01T08:32:36;14.00;;;8.70;;
69005;SDS011;56061;51.748;19.620;2023-04-01T08:35:26;18.40;;;10.80;;
69005;SDS011;56061;51.748;19.620;2023-04-01T08:38:37;13.20;;;9.40;;
69005;SDS011;56061;51.748;19.620;2023-04-01T08:45:00;13.00;;;7.20;;
69005;SDS011;56061;51.748;19.620;2023-04-01T08:47:46;11.30;;;6.10;;
69005;SDS011;56061;51.748;19.620;2023-04-01T08:56:50;13.80;;;8.40;;
69005;SDS011;56061;51.748;19.620;2023-04-01T09:06:04;14.40;;;9.40;;
69005;SDS011;56061;51.748;19.620;2023-04-01T09:08:57;13.10;;;8.80;;
69005;SDS011;56061;51.748;19.620;2023-04-01T09:27:04;18.00;;;11.60;;
69005;SDS011;56061;51.748;19.620;2023-04-01T09:29:52;12.30;;;7.90;;
69005;SDS011;56061;51.748;19.620;2023-04-01T09:36:11;12.30;;;8.00;;
69005;SDS011;56061;51.748;19.620;2023-04-01T09:38:57;13.30;;;8.80;;
69005;SDS011;56061;51.748;19.620;2023-04-01T09:41:31;11.60;;;6.80;;
69005;SDS011;56061;51.748;19.620;2023-04-01T09:44:08;12.00;;;7.80;;
69005;SDS011;56061;51.748;19.620;2023-04-01T09:47:05;17.10;;;9.20;;
69005;SDS011;56061;51.748;19.620;2023-04-01T09:53:01;14.10;;;9.10;;
69005;SDS011;56061;51.748;19.620;2023-04-01T09:56:03;16.70;;;9.80;;
69005;SDS011;56061;51.748;19.620;2023-04-01T10:01:36;16.30;;;9.20;;
69005;SDS011;56061;51.748;19.620;2023-04-01T10:07:30;17.90;;;9.20;;
69005;SDS011;56061;51.748;19.620;2023-04-01T10:10:31;15.00;;;9.20;;
69005;SDS011;56061;51.748;19.620;2023-04-01T10:19:55;32.70;;;20.10;;
69005;SDS011;56061;51.748;19.620;2023-04-01T10:43:27;19.00;;;11.30;;
69005;SDS011;56061;51.748;19.620;2023-04-01T10:50:08;7.80;;;3.50;;
69005;SDS011;56061;51.748;19.620;2023-04-01T10:53:17;3.80;;;1.90;;
69005;SDS011;56061;51.748;19.620;2023-04-01T11:14:23;11.50;;;4.60;;
69005;SDS011;56061;51.748;19.620;2023-04-01T11:20:27;15.30;;;6.20;;
69005;SDS011;56061;51.748;19.620;2023-04-01T11:23:28;11.50;;;4.80;;
69005;SDS011;56061;51.748;19.620;2023-04-01T11:26:07;14.00;;;6.80;;
69005;SDS011;56061;51.748;19.620;2023-04-01T11:28:57;14.70;;;8.00;;
69005;SDS011;56061;51.748;19.620;2023-04-01T11:31:55;14.40;;;7.00;;
69005;SDS011;56061;51.748;19.620;2023-04-01T11:35:00;16.90;;;8.60;;
69005;SDS011;56061;51.748;19.620;2023-04-01T11:37:44;16.00;;;7.90;;
69005;SDS011;56061;51.748;19.620;2023-04-01T11:40:28;15.10;;;6.90;;
69005;SDS011;56061;51.748;19.620;2023-04-01T11:43:11;12.30;;;5.40;;
69005;SDS011;56061;51.748;19.620;2023-04-01T11:46:43;6.00;;;2.90;;
69005;SDS011;56061;51.748;19.620;2023-04-01T11:49:42;5.00;;;2.50;;
69005;SDS011;56061;51.748;19.620;2023-04-01T11:58:36;5.70;;;2.40;;
69005;SDS011;56061;51.748;19.620;2023-04-01T12:04:36;5.70;;;2.90;;
69005;SDS011;56061;51.748;19.620;2023-04-01T12:07:27;5.70;;;2.90;;
69005;SDS011;56061;51.748;19.620;2023-04-01T12:10:21;8.00;;;3.80;;
69005;SDS011;56061;51.748;19.620;2023-04-01T12:13:03;6.40;;;3.30;;
69005;SDS011;56061;51.748;19.620;2023-04-01T12:16:05;6.60;;;3.30;;
69005;SDS011;56061;51.748;19.620;2023-04-01T12:21:37;7.30;;;3.50;;
69005;SDS011;56061;51.748;19.620;2023-04-01T12:24:29;6.40;;;3.20;;
69005;SDS011;56061;51.748;19.620;2023-04-01T12:27:23;6.00;;;2.90;;
69005;SDS011;56061;51.748;19.620;2023-04-01T12:30:28;8.00;;;3.50;;
69005;SDS011;56061;51.748;19.620;2023-04-01T12:33:24;6.70;;;3.30;;
69005;SDS011;56061;51.748;19.620;2023-04-01T12:36:26;6.50;;;2.80;;
69005;SDS011;56061;51.748;19.620;2023-04-01T12:39:29;6.80;;;3.30;;
69005;SDS011;56061;51.748;19.620;2023-04-01T12:45:53;8.10;;;3.50;;
69005;SDS011;56061;51.748;19.620;2023-04-01T12:48:40;6.20;;;3.20;;
69005;SDS011;56061;51.748;19.620;2023-04-01T12:57:54;6.30;;;2.80;;
69005;SDS011;56061;51.748;19.620;2023-04-01T13:06:56;7.20;;;2.90;;
69005;SDS011;56061;51.748;19.620;2023-04-01T13:15:26;9.50;;;3.50;;
69005;SDS011;56061;51.748;19.620;2023-04-01T13:21:44;7.10;;;3.80;;
69005;SDS011;56061;51.748;19.620;2023-04-01T13:24:55;7.30;;;4.00;;
69005;SDS011;56061;51.748;19.620;2023-04-01T13:27:40;7.10;;;3.90;;
69005;SDS011;56061;51.748;19.620;2023-04-01T13:30:30;7.50;;;3.60;;
69005;SDS011;56061;51.748;19.620;2023-04-01T13:33:25;7.00;;;3.90;;
69005;SDS011;56061;51.748;19.620;2023-04-01T13:37:04;7.30;;;3.30;;
69005;SDS011;56061;51.748;19.620;2023-04-01T13:42:24;9.00;;;4.40;;
69005;SDS011;56061;51.748;19.620;2023-04-01T13:45:17;9.50;;;4.40;;
69005;SDS011;56061;51.748;19.620;2023-04-01T13:59:59;8.00;;;4.20;;
69005;SDS011;56061;51.748;19.620;2023-04-01T14:03:03;9.70;;;5.10;;
69005;SDS011;56061;51.748;19.620;2023-04-01T14:06:06;9.80;;;5.20;;
69005;SDS011;56061;51.748;19.620;2023-04-01T14:09:13;10.20;;;5.40;;
69005;SDS011;56061;51.748;19.620;2023-04-01T14:12:09;11.00;;;5.20;;
69005;SDS011;56061;51.748;19.620;2023-04-01T14:21:04;10.10;;;5.70;;
69005;SDS011;56061;51.748;19.620;2023-04-01T14:23:47;10.60;;;5.80;;
69005;SDS011;56061;51.748;19.620;2023-04-01T14:27:12;9.60;;;4.60;;
69005;SDS011;56061;51.748;19.620;2023-04-01T14:33:01;6.30;;;2.70;;
69005;SDS011;56061;51.748;19.620;2023-04-01T14:35:55;6.00;;;3.00;;
69005;SDS011;56061;51.748;19.620;2023-04-01T14:41:30;6.40;;;2.80;;
69005;SDS011;56061;51.748;19.620;2023-04-01T14:44:44;5.40;;;2.70;;
69005;SDS011;56061;51.748;19.620;2023-04-01T14:47:28;5.40;;;2.50;;
69005;SDS011;56061;51.748;19.620;2023-04-01T14:50:28;6.10;;;2.70;;
69005;SDS011;56061;51.748;19.620;2023-04-01T14:56:00;6.60;;;3.00;;
69005;SDS011;56061;51.748;19.620;2023-04-01T14:58:45;6.30;;;3.30;;
69005;SDS011;56061;51.748;19.620;2023-04-01T15:11:01;12.30;;;7.20;;
69005;SDS011;56061;51.748;19.620;2023-04-01T15:20:00;10.60;;;5.10;;
69005;SDS011;56061;51.748;19.620;2023-04-01T15:22:47;9.90;;;6.00;;
69005;SDS011;56061;51.748;19.620;2023-04-01T15:25:49;12.70;;;7.00;;
69005;SDS011;56061;51.748;19.620;2023-04-01T15:31:15;11.40;;;6.80;;
69005;SDS011;56061;51.748;19.620;2023-04-01T15:33:59;14.00;;;7.70;;
69005;SDS011;56061;51.748;19.620;2023-04-01T15:39:54;20.20;;;10.60;;
69005;SDS011;56061;51.748;19.620;2023-04-01T15:42:40;14.70;;;7.60;;
69005;SDS011;56061;51.748;19.620;2023-04-01T15:45:41;14.20;;;7.60;;
69005;SDS011;56061;51.748;19.620;2023-04-01T15:54:25;17.20;;;8.30;;
69005;SDS011;56061;51.748;19.620;2023-04-01T15:57:37;15.40;;;7.30;;
69005;SDS011;56061;51.748;19.620;2023-04-01T16:00:19;17.90;;;8.20;;
69005;SDS011;56061;51.748;19.620;2023-04-01T16:03:08;16.00;;;8.00;;
69005;SDS011;56061;51.748;19.620;2023-04-01T16:09:25;17.00;;;9.20;;
69005;SDS011;56061;51.748;19.620;2023-04-01T16:13:00;17.60;;;9.20;;
69005;SDS011;56061;51.748;19.620;2023-04-01T16:15:29;12.80;;;6.90;;
69005;SDS011;56061;51.748;19.620;2023-04-01T16:24:42;12.10;;;6.00;;
69005;SDS011;56061;51.748;19.620;2023-04-01T16:27:35;16.90;;;7.70;;
69005;SDS011;56061;51.748;19.620;2023-04-01T16:30:32;19.90;;;9.00;;
69005;SDS011;56061;51.748;19.620;2023-04-01T16:33:11;16.60;;;8.30;;
69005;SDS011;56061;51.748;19.620;2023-04-01T16:35:55;16.80;;;8.40;;
69005;SDS011;56061;51.748;19.620;2023-04-01T16:38:36;15.40;;;7.30;;
69005;SDS011;56061;51.748;19.620;2023-04-01T16:41:14;17.70;;;9.30;;
69005;SDS011;56061;51.748;19.620;2023-04-01T16:43:48;13.70;;;6.60;;
69005;SDS011;56061;51.748;19.620;2023-04-01T16:46:32;14.80;;;7.50;;
69005;SDS011;56061;51.748;19.620;2023-04-01T16:49:23;15.40;;;8.20;;
69005;SDS011;56061;51.748;19.620;2023-04-01T16:54:43;13.80;;;7.60;;
69005;SDS011;56061;51.748;19.620;2023-04-01T16:57:28;16.60;;;8.60;;
69005;SDS011;56061;51.748;19.620;2023-04-01T17:00:25;14.50;;;7.30;;
69005;SDS011;56061;51.748;19.620;2023-04-01T17:03:12;14.90;;;8.10;;
69005;SDS011;56061;51.748;19.620;2023-04-01T17:13:01;16.80;;;8.70;;
69005;SDS011;56061;51.748;19.620;2023-04-01T17:15:46;17.80;;;9.70;;
69005;SDS011;56061;51.748;19.620;2023-04-01T17:18:47;17.00;;;9.50;;
69005;SDS011;56061;51.748;19.620;2023-04-01T17:25:04;17.10;;;8.70;;
69005;SDS011;56061;51.748;19.620;2023-04-01T17:28:03;20.30;;;9.30;;
69005;SDS011;56061;51.748;19.620;2023-04-01T17:30:57;16.10;;;8.00;;
69005;SDS011;56061;51.748;19.620;2023-04-01T17:34:14;17.50;;;8.80;;
69005;SDS011;56061;51.748;19.620;2023-04-01T17:45:21;16.40;;;7.90;;
69005;SDS011;56061;51.748;19.620;2023-04-01T17:48:18;16.50;;;7.90;;
69005;SDS011;56061;51.748;19.620;2023-04-01T17:51:09;20.90;;;10.20;;
69005;SDS011;56061;51.748;19.620;2023-04-01T17:54:01;21.30;;;11.50;;
69005;SDS011;56061;51.748;19.620;2023-04-01T17:57:13;21.20;;;10.60;;
69005;SDS011;56061;51.748;19.620;2023-04-01T18:00:02;24.30;;;12.10;;
69005;SDS011;56061;51.748;19.620;2023-04-01T18:03:12;19.10;;;9.20;;
69005;SDS011;56061;51.748;19.620;2023-04-01T18:06:21;23.10;;;11.60;;
69005;SDS011;56061;51.748;19.620;2023-04-01T18:17:55;20.30;;;10.50;;
69005;SDS011;56061;51.748;19.620;2023-04-01T18:20:42;22.10;;;10.70;;
69005;SDS011;56061;51.748;19.620;2023-04-01T18:26:07;20.10;;;10.00;;
69005;SDS011;56061;51.748;19.620;2023-04-01T18:32:14;22.30;;;10.60;;
69005;SDS011;56061;51.748;19.620;2023-04-01T18:35:09;23.00;;;11.10;;
69005;SDS011;56061;51.748;19.620;2023-04-01T18:38:12;27.40;;;13.00;;
69005;SDS011;56061;51.748;19.620;2023-04-01T18:46:19;29.00;;;16.30;;
69005;SDS011;56061;51.748;19.620;2023-04-01T18:49:16;21.60;;;11.60;;
69005;SDS011;56061;51.748;19.620;2023-04-01T18:51:59;22.60;;;10.30;;
69005;SDS011;56061;51.748;19.620;2023-04-01T18:54:45;24.60;;;13.30;;
69005;SDS011;56061;51.748;19.620;2023-04-01T18:57:19;24.70;;;13.20;;
69005;SDS011;56061;51.748;19.620;2023-04-01T18:59:55;23.20;;;11.30;;
69005;SDS011;56061;51.748;19.620;2023-04-01T19:05:18;21.60;;;11.40;;
69005;SDS011;56061;51.748;19.620;2023-04-01T19:07:52;21.50;;;11.30;;
69005;SDS011;56061;51.748;19.620;2023-04-01T19:19:18;24.90;;;11.30;;
69005;SDS011;56061;51.748;19.620;2023-04-01T19:21:58;16.70;;;7.80;;
69005;SDS011;56061;51.748;19.620;2023-04-01T19:25:12;17.90;;;9.50;;
69005;SDS011;56061;51.748;19.620;2023-04-01T19:27:51;17.10;;;7.90;;
69005;SDS011;56061;51.748;19.620;2023-04-01T19:33:39;15.50;;;7.50;;
69005;SDS011;56061;51.748;19.620;2023-04-01T19:36:34;16.50;;;8.60;;
69005;SDS011;56061;51.748;19.620;2023-04-01T19:42:58;16.80;;;8.30;;
69005;SDS011;56061;51.748;19.620;2023-04-01T19:45:50;20.80;;;10.30;;
69005;SDS011;56061;51.748;19.620;2023-04-01T19:48:48;16.30;;;7.90;;
69005;SDS011;56061;51.748;19.620;2023-04-01T19:54:47;17.50;;;9.40;;
69005;SDS011;56061;51.748;19.620;2023-04-01T20:00:25;22.30;;;11.30;;
69005;SDS011;56061;51.748;19.620;2023-04-01T20:06:13;22.20;;;10.50;;
69005;SDS011;56061;51.748;19.620;2023-04-01T20:17:19;24.00;;;11.30;;
69005;SDS011;56061;51.748;19.620;2023-04-01T20:19:57;26.30;;;12.20;;
69005;SDS011;56061;51.748;19.620;2023-04-01T20:25:17;23.30;;;11.10;;
69005;SDS011;56061;51.748;19.620;2023-04-01T20:28:08;22.50;;;11.80;;
69005;SDS011;56061;51.748;19.620;2023-04-01T20:36:54;22.90;;;11.00;;
69005;SDS011;56061;51.748;19.620;2023-04-01T20:42:56;19.00;;;9.80;;
69005;SDS011;56061;51.748;19.620;2023-04-01T20:45:56;16.00;;;8.20;;
69005;SDS011;56061;51.748;19.620;2023-04-01T20:48:51;17.80;;;9.40;;
69005;SDS011;56061;51.748;19.620;2023-04-01T20:51:37;22.50;;;11.60;;
69005;SDS011;56061;51.748;19.620;2023-04-01T20:54:17;13.60;;;7.10;;
69005;SDS011;56061;51.748;19.620;2023-04-01T20:57:11;17.10;;;8.80;;
69005;SDS011;56061;51.748;19.620;2023-04-01T21:00:02;19.20;;;9.20;;
69005;SDS011;56061;51.748;19.620;2023-04-01T21:05:53;15.40;;;8.10;;
69005;SDS011;56061;51.748;19.620;2023-04-01T21:17:45;18.80;;;9.20;;
69005;SDS011;56061;51.748;19.620;2023-04-01T21:20:47;15.80;;;8.40;;
69005;SDS011;56061;51.748;19.620;2023-04-01T21:29:46;14.40;;;6.30;;
69005;SDS011;56061;51.748;19.620;2023-04-01T21:32:42;15.30;;;7.50;;
69005;SDS011;56061;51.748;19.620;2023-04-01T21:35:57;14.70;;;7.80;;
69005;SDS011;56061;51.748;19.620;2023-04-01T21:38:48;14.70;;;7.00;;
69005;SDS011;56061;51.748;19.620;2023-04-01T21:47:31;21.00;;;10.20;;
69005;SDS011;56061;51.748;19.620;2023-04-01T21:50:35;13.10;;;7.20;;
69005;SDS011;56061;51.748;19.620;2023-04-01T21:53:36;20.00;;;10.00;;
69005;SDS011;56061;51.748;19.620;2023-04-01T22:03:13;17.70;;;9.40;;
69005;SDS011;56061;51.748;19.620;2023-04-01T22:06:10;18.80;;;9.80;;